sensor_id;sensor_type;location;lat;lon;timestamp;P1;durP1;ratioP1;P2;durP2;ratioP2
23302;SDS011;11820;48.738;9.092;2022-09-20T00:01:26;4.57;;;1.67;;
23302;SDS011;11820;48.738;9.092;2022-09-20T00:03:56;2.60;;;1.90;;
23302;SDS011;11820;48.738;9.092;2022-09-20T00:06:24;4.27;;;2.10;;
23302;SDS011;11820;48.738;9.092;2022-09-20T00:08:51;2.33;;;1.97;;
23302;SDS011;11820;48.738;9.092;2022-09-20T00:11:18;1.80;;;1.70;;
23302;SDS011;11820;48.738;9.092;2022-09-20T00:13:47;4.87;;;2.03;;
23302;SDS011;11820;48.738;9.092;2022-09-20T00:16:14;3.30;;;1.93;;
23302;SDS011;11820;48.738;9.092;2022-09-20T00:18:41;6.83;;;1.70;;
23302;SDS011;11820;48.738;9.092;2022-09-20T00:21:10;5.20;;;1.40;;
23302;SDS011;11820;48.738;9.092;2022-09-20T00:23:39;2.57;;;2.13;;
23302;SDS011;11820;48.738;9.092;2022-09-20T00:26:05;3.90;;;1.70;;
23302;SDS011;11820;48.738;9.092;2022-09-20T00:28:30;4.70;;;1.80;;
23302;SDS011;11820;48.738;9.092;2022-09-20T00:30:55;3.30;;;1.67;;
23302;SDS011;11820;48.738;9.092;2022-09-20T00:33:21;3.33;;;1.87;;
23302;SDS011;11820;48.738;9.092;2022-09-20T00:35:48;3.77;;;1.70;;
23302;SDS011;11820;48.738;9.092;2022-09-20T00:38:14;6.30;;;1.90;;
23302;SDS011;11820;48.738;9.092;2022-09-20T00:40:40;3.00;;;1.70;;
23302;SDS011;11820;48.738;9.092;2022-09-20T00:43:09;2.60;;;1.60;;
23302;SDS011;11820;48.738;9.092;2022-09-20T00:45:40;2.63;;;1.80;;
23302;SDS011;11820;48.738;9.092;2022-09-20T00:48:22;2.23;;;1.67;;
23302;SDS011;11820;48.738;9.092;2022-09-20T00:50:55;5.33;;;1.70;;
23302;SDS011;11820;48.738;9.092;2022-09-20T00:53:36;4.53;;;1.80;;
23302;SDS011;11820;48.738;9.092;2022-09-20T00:56:06;3.23;;;1.67;;
23302;SDS011;11820;48.738;9.092;2022-09-20T00:58:40;4.57;;;1.83;;
23302;SDS011;11820;48.738;9.092;2022-09-20T01:01:11;2.67;;;1.60;;
23302;SDS011;11820;48.738;9.092;2022-09-20T01:03:37;4.60;;;1.97;;
23302;SDS011;11820;48.738;9.092;2022-09-20T01:06:06;2.63;;;1.23;;
23302;SDS011;11820;48.738;9.092;2022-09-20T01:08:35;7.37;;;1.77;;
23302;SDS011;11820;48.738;9.092;2022-09-20T01:11:01;6.17;;;2.03;;
23302;SDS011;11820;48.738;9.092;2022-09-20T01:13:27;4.00;;;1.67;;
23302;SDS011;11820;48.738;9.092;2022-09-20T01:15:52;1.80;;;1.50;;
23302;SDS011;11820;48.738;9.092;2022-09-20T01:18:19;1.60;;;1.33;;
23302;SDS011;11820;48.738;9.092;2022-09-20T01:20:47;3.17;;;1.60;;
23302;SDS011;11820;48.738;9.092;2022-09-20T01:26:16;3.37;;;1.50;;
23302;SDS011;11820;48.738;9.092;2022-09-20T01:29:29;2.83;;;1.33;;
23302;SDS011;11820;48.738;9.092;2022-09-20T01:32:05;4.63;;;1.83;;
23302;SDS011;11820;48.738;9.092;2022-09-20T01:34:37;2.53;;;2.17;;
23302;SDS011;11820;48.738;9.092;2022-09-20T01:37:26;3.00;;;1.50;;
23302;SDS011;11820;48.738;9.092;2022-09-20T01:40:05;3.20;;;1.63;;
23302;SDS011;11820;48.738;9.092;2022-09-20T01:42:38;4.33;;;1.73;;
23302;SDS011;11820;48.738;9.092;2022-09-20T01:53:34;2.70;;;2.23;;
23302;SDS011;11820;48.738;9.092;2022-09-20T02:15:48;3.73;;;1.90;;
23302;SDS011;11820;48.738;9.092;2022-09-20T02:35:24;3.87;;;1.70;;
23302;SDS011;11820;48.738;9.092;2022-09-20T02:37:56;2.03;;;1.73;;
23302;SDS011;11820;48.738;9.092;2022-09-20T02:48:48;3.30;;;1.63;;
23302;SDS011;11820;48.738;9.092;2022-09-20T02:51:38;2.43;;;1.73;;
23302;SDS011;11820;48.738;9.092;2022-09-20T02:54:17;3.47;;;1.37;;
23302;SDS011;11820;48.738;9.092;2022-09-20T02:56:58;3.93;;;1.63;;
23302;SDS011;11820;48.738;9.092;2022-09-20T02:59:43;4.57;;;1.40;;
23302;SDS011;11820;48.738;9.092;2022-09-20T03:02:27;3.93;;;1.60;;
23302;SDS011;11820;48.738;9.092;2022-09-20T03:15:50;5.17;;;1.50;;
23302;SDS011;11820;48.738;9.092;2022-09-20T03:26:56;2.37;;;1.30;;
23302;SDS011;11820;48.738;9.092;2022-09-20T03:42:53;4.20;;;1.40;;
23302;SDS011;11820;48.738;9.092;2022-09-20T03:45:39;3.83;;;2.10;;
23302;SDS011;11820;48.738;9.092;2022-09-20T03:48:51;1.73;;;1.50;;
23302;SDS011;11820;48.738;9.092;2022-09-20T04:02:19;2.30;;;1.63;;
23302;SDS011;11820;48.738;9.092;2022-09-20T04:05:14;3.93;;;1.90;;
23302;SDS011;11820;48.738;9.092;2022-09-20T04:19:00;5.23;;;1.87;;
23302;SDS011;11820;48.738;9.092;2022-09-20T04:21:40;3.70;;;2.20;;
23302;SDS011;11820;48.738;9.092;2022-09-20T04:24:22;5.07;;;1.43;;
23302;SDS011;11820;48.738;9.092;2022-09-20T04:27:18;4.87;;;1.77;;
23302;SDS011;11820;48.738;9.092;2022-09-20T04:32:38;5.57;;;1.70;;
23302;SDS011;11820;48.738;9.092;2022-09-20T04:38:06;3.20;;;1.40;;
23302;SDS011;11820;48.738;9.092;2022-09-20T05:00:20;4.97;;;2.07;;
23302;SDS011;11820;48.738;9.092;2022-09-20T05:05:55;5.20;;;2.10;;
23302;SDS011;11820;48.738;9.092;2022-09-20T05:25:24;3.60;;;2.10;;
23302;SDS011;11820;48.738;9.092;2022-09-20T05:28:58;4.60;;;2.27;;
23302;SDS011;11820;48.738;9.092;2022-09-20T05:30:56;4.40;;;2.10;;
23302;SDS011;11820;48.738;9.092;2022-09-20T05:41:55;4.37;;;2.23;;
23302;SDS011;11820;48.738;9.092;2022-09-20T05:49:59;5.27;;;2.70;;
23302;SDS011;11820;48.738;9.092;2022-09-20T05:55:29;5.60;;;2.23;;
23302;SDS011;11820;48.738;9.092;2022-09-20T06:04:34;6.37;;;2.63;;
23302;SDS011;11820;48.738;9.092;2022-09-20T06:18:16;7.20;;;2.53;;
23302;SDS011;11820;48.738;9.092;2022-09-20T06:20:51;7.03;;;2.30;;
23302;SDS011;11820;48.738;9.092;2022-09-20T06:23:39;3.40;;;1.97;;
23302;SDS011;11820;48.738;9.092;2022-09-20T06:26:18;7.40;;;2.57;;
23302;SDS011;11820;48.738;9.092;2022-09-20T06:28:48;4.97;;;2.27;;
23302;SDS011;11820;48.738;9.092;2022-09-20T06:31:18;9.13;;;2.97;;
23302;SDS011;11820;48.738;9.092;2022-09-20T06:33:52;5.40;;;2.30;;
23302;SDS011;11820;48.738;9.092;2022-09-20T06:36:31;6.60;;;3.05;;
23302;SDS011;11820;48.738;9.092;2022-09-20T06:42:23;6.20;;;2.60;;
23302;SDS011;11820;48.738;9.092;2022-09-20T06:44:50;5.40;;;2.33;;
23302;SDS011;11820;48.738;9.092;2022-09-20T06:47:15;7.90;;;3.00;;
23302;SDS011;11820;48.738;9.092;2022-09-20T06:49:41;5.60;;;2.50;;
23302;SDS011;11820;48.738;9.092;2022-09-20T06:52:12;4.87;;;2.73;;
23302;SDS011;11820;48.738;9.092;2022-09-20T06:54:39;6.43;;;2.30;;
23302;SDS011;11820;48.738;9.092;2022-09-20T06:57:08;5.80;;;3.13;;
23302;SDS011;11820;48.738;9.092;2022-09-20T06:59:34;8.50;;;3.33;;
23302;SDS011;11820;48.738;9.092;2022-09-20T07:01:59;5.60;;;2.80;;
23302;SDS011;11820;48.738;9.092;2022-09-20T07:04:25;8.17;;;2.97;;
23302;SDS011;11820;48.738;9.092;2022-09-20T07:06:51;4.67;;;2.23;;
23302;SDS011;11820;48.738;9.092;2022-09-20T07:09:18;9.63;;;3.03;;
23302;SDS011;11820;48.738;9.092;2022-09-20T07:11:43;7.17;;;3.07;;
23302;SDS011;11820;48.738;9.092;2022-09-20T07:14:10;5.40;;;2.60;;
23302;SDS011;11820;48.738;9.092;2022-09-20T07:16:35;6.63;;;2.73;;
23302;SDS011;11820;48.738;9.092;2022-09-20T07:19:02;8.33;;;3.00;;
23302;SDS011;11820;48.738;9.092;2022-09-20T07:21:29;8.60;;;3.07;;
23302;SDS011;11820;48.738;9.092;2022-09-20T07:23:54;10.47;;;3.50;;
23302;SDS011;11820;48.738;9.092;2022-09-20T07:26:21;6.73;;;3.57;;
23302;SDS011;11820;48.738;9.092;2022-09-20T07:28:50;8.70;;;3.43;;
23302;SDS011;11820;48.738;9.092;2022-09-20T07:31:17;11.27;;;3.33;;
23302;SDS011;11820;48.738;9.092;2022-09-20T07:33:43;10.43;;;3.47;;
23302;SDS011;11820;48.738;9.092;2022-09-20T07:36:09;9.03;;;3.10;;
23302;SDS011;11820;48.738;9.092;2022-09-20T07:38:36;9.97;;;3.63;;
23302;SDS011;11820;48.738;9.092;2022-09-20T07:41:02;7.30;;;3.40;;
23302;SDS011;11820;48.738;9.092;2022-09-20T07:43:28;7.63;;;3.30;;
23302;SDS011;11820;48.738;9.092;2022-09-20T07:45:55;7.73;;;3.10;;
23302;SDS011;11820;48.738;9.092;2022-09-20T07:48:22;8.50;;;3.20;;
23302;SDS011;11820;48.738;9.092;2022-09-20T07:50:54;10.90;;;3.13;;
23302;SDS011;11820;48.738;9.092;2022-09-20T07:53:21;11.50;;;2.57;;
23302;SDS011;11820;48.738;9.092;2022-09-20T07:55:56;11.70;;;3.23;;
23302;SDS011;11820;48.738;9.092;2022-09-20T07:58:26;9.03;;;2.67;;
23302;SDS011;11820;48.738;9.092;2022-09-20T08:00:54;12.20;;;2.90;;
23302;SDS011;11820;48.738;9.092;2022-09-20T08:03:21;7.03;;;2.30;;
23302;SDS011;11820;48.738;9.092;2022-09-20T08:05:47;7.30;;;2.33;;
23302;SDS011;11820;48.738;9.092;2022-09-20T08:08:14;13.93;;;2.73;;
23302;SDS011;11820;48.738;9.092;2022-09-20T08:10:41;9.67;;;2.50;;
23302;SDS011;11820;48.738;9.092;2022-09-20T08:13:07;8.43;;;2.50;;
23302;SDS011;11820;48.738;9.092;2022-09-20T08:15:33;13.43;;;2.40;;
23302;SDS011;11820;48.738;9.092;2022-09-20T08:17:58;10.10;;;2.17;;
23302;SDS011;11820;48.738;9.092;2022-09-20T08:20:24;8.97;;;2.40;;
23302;SDS011;11820;48.738;9.092;2022-09-20T08:22:49;7.67;;;2.30;;
23302;SDS011;11820;48.738;9.092;2022-09-20T08:25:14;9.67;;;2.20;;
23302;SDS011;11820;48.738;9.092;2022-09-20T08:27:41;10.03;;;2.47;;
23302;SDS011;11820;48.738;9.092;2022-09-20T08:30:07;9.90;;;3.17;;
23302;SDS011;11820;48.738;9.092;2022-09-20T08:32:33;4.90;;;2.20;;
23302;SDS011;11820;48.738;9.092;2022-09-20T08:34:58;5.57;;;1.67;;
23302;SDS011;11820;48.738;9.092;2022-09-20T08:37:23;5.60;;;1.90;;
23302;SDS011;11820;48.738;9.092;2022-09-20T08:39:49;4.10;;;1.43;;
23302;SDS011;11820;48.738;9.092;2022-09-20T08:42:21;5.77;;;2.53;;
23302;SDS011;11820;48.738;9.092;2022-09-20T08:45:14;5.23;;;1.53;;
23302;SDS011;11820;48.738;9.092;2022-09-20T08:47:47;9.67;;;1.93;;
23302;SDS011;11820;48.738;9.092;2022-09-20T08:50:17;5.93;;;1.87;;
23302;SDS011;11820;48.738;9.092;2022-09-20T08:52:44;13.27;;;2.57;;
23302;SDS011;11820;48.738;9.092;2022-09-20T08:55:14;4.33;;;1.67;;
23302;SDS011;11820;48.738;9.092;2022-09-20T08:57:40;6.83;;;2.07;;
23302;SDS011;11820;48.738;9.092;2022-09-20T09:00:09;10.83;;;2.40;;
23302;SDS011;11820;48.738;9.092;2022-09-20T09:02:41;5.73;;;2.23;;
23302;SDS011;11820;48.738;9.092;2022-09-20T09:05:50;8.10;;;2.10;;
23302;SDS011;11820;48.738;9.092;2022-09-20T09:08:02;5.07;;;2.50;;
23302;SDS011;11820;48.738;9.092;2022-09-20T09:10:35;8.17;;;2.03;;
23302;SDS011;11820;48.738;9.092;2022-09-20T09:13:03;5.90;;;1.60;;
23302;SDS011;11820;48.738;9.092;2022-09-20T09:15:30;7.70;;;2.87;;
23302;SDS011;11820;48.738;9.092;2022-09-20T09:17:58;8.80;;;3.90;;
23302;SDS011;11820;48.738;9.092;2022-09-20T09:20:24;6.97;;;2.23;;
23302;SDS011;11820;48.738;9.092;2022-09-20T09:23:03;8.97;;;2.37;;
23302;SDS011;11820;48.738;9.092;2022-09-20T09:25:36;6.40;;;2.00;;
23302;SDS011;11820;48.738;9.092;2022-09-20T09:30:41;7.67;;;2.10;;
23302;SDS011;11820;48.738;9.092;2022-09-20T09:33:27;6.63;;;2.13;;
23302;SDS011;11820;48.738;9.092;2022-09-20T09:36:15;8.77;;;1.80;;
23302;SDS011;11820;48.738;9.092;2022-09-20T09:38:42;9.27;;;2.10;;
23302;SDS011;11820;48.738;9.092;2022-09-20T09:41:20;7.17;;;1.57;;
23302;SDS011;11820;48.738;9.092;2022-09-20T09:46:46;4.03;;;1.60;;
23302;SDS011;11820;48.738;9.092;2022-09-20T09:54:21;8.13;;;2.10;;
23302;SDS011;11820;48.738;9.092;2022-09-20T09:56:54;6.60;;;1.80;;
23302;SDS011;11820;48.738;9.092;2022-09-20T10:07:08;5.87;;;1.33;;
23302;SDS011;11820;48.738;9.092;2022-09-20T10:09:56;2.73;;;1.20;;
23302;SDS011;11820;48.738;9.092;2022-09-20T10:15:23;5.90;;;1.30;;
23302;SDS011;11820;48.738;9.092;2022-09-20T10:21:00;6.57;;;1.33;;
23302;SDS011;11820;48.738;9.092;2022-09-20T10:37:00;7.73;;;1.23;;
23302;SDS011;11820;48.738;9.092;2022-09-20T10:45:02;5.87;;;1.60;;
23302;SDS011;11820;48.738;9.092;2022-09-20T10:47:42;5.93;;;1.77;;
23302;SDS011;11820;48.738;9.092;2022-09-20T10:53:11;10.17;;;1.40;;
23302;SDS011;11820;48.738;9.092;2022-09-20T10:55:55;3.97;;;1.40;;
23302;SDS011;11820;48.738;9.092;2022-09-20T11:01:19;3.27;;;1.17;;
23302;SDS011;11820;48.738;9.092;2022-09-20T11:03:57;5.50;;;1.33;;
23302;SDS011;11820;48.738;9.092;2022-09-20T11:08:54;7.30;;;1.67;;
23302;SDS011;11820;48.738;9.092;2022-09-20T11:14:01;2.80;;;1.00;;
23302;SDS011;11820;48.738;9.092;2022-09-20T11:16:40;4.53;;;1.30;;
23302;SDS011;11820;48.738;9.092;2022-09-20T11:21:38;7.47;;;1.60;;
23302;SDS011;11820;48.738;9.092;2022-09-20T11:24:29;4.93;;;1.63;;
23302;SDS011;11820;48.738;9.092;2022-09-20T11:27:45;3.73;;;1.40;;
23302;SDS011;11820;48.738;9.092;2022-09-20T11:30:03;4.83;;;1.40;;
23302;SDS011;11820;48.738;9.092;2022-09-20T11:32:40;3.37;;;1.00;;
23302;SDS011;11820;48.738;9.092;2022-09-20T11:40:28;3.93;;;1.27;;
23302;SDS011;11820;48.738;9.092;2022-09-20T11:42:59;5.90;;;1.40;;
23302;SDS011;11820;48.738;9.092;2022-09-20T11:45:28;3.27;;;1.30;;
23302;SDS011;11820;48.738;9.092;2022-09-20T11:47:55;5.57;;;1.53;;
23302;SDS011;11820;48.738;9.092;2022-09-20T11:56:00;4.90;;;1.40;;
23302;SDS011;11820;48.738;9.092;2022-09-20T11:58:47;4.13;;;1.60;;
23302;SDS011;11820;48.738;9.092;2022-09-20T12:01:20;5.87;;;1.47;;
23302;SDS011;11820;48.738;9.092;2022-09-20T12:03:51;4.43;;;1.30;;
23302;SDS011;11820;48.738;9.092;2022-09-20T12:06:24;5.70;;;1.40;;
23302;SDS011;11820;48.738;9.092;2022-09-20T12:08:50;3.00;;;1.43;;
23302;SDS011;11820;48.738;9.092;2022-09-20T12:11:16;2.30;;;0.93;;
23302;SDS011;11820;48.738;9.092;2022-09-20T12:14:39;4.00;;;1.13;;
23302;SDS011;11820;48.738;9.092;2022-09-20T12:17:00;2.20;;;1.10;;
23302;SDS011;11820;48.738;9.092;2022-09-20T12:24:22;6.53;;;1.30;;
23302;SDS011;11820;48.738;9.092;2022-09-20T12:26:51;2.33;;;1.27;;
23302;SDS011;11820;48.738;9.092;2022-09-20T12:31:52;3.40;;;1.20;;
23302;SDS011;11820;48.738;9.092;2022-09-20T12:47:17;5.67;;;1.57;;
23302;SDS011;11820;48.738;9.092;2022-09-20T12:58:16;2.50;;;1.20;;
23302;SDS011;11820;48.738;9.092;2022-09-20T13:03:23;4.77;;;1.30;;
23302;SDS011;11820;48.738;9.092;2022-09-20T13:06:21;2.87;;;1.10;;
23302;SDS011;11820;48.738;9.092;2022-09-20T13:08:45;4.23;;;1.37;;
23302;SDS011;11820;48.738;9.092;2022-09-20T13:11:52;2.83;;;1.20;;
23302;SDS011;11820;48.738;9.092;2022-09-20T13:14:27;4.03;;;1.70;;
23302;SDS011;11820;48.738;9.092;2022-09-20T13:19:37;4.13;;;1.30;;
23302;SDS011;11820;48.738;9.092;2022-09-20T13:22:29;3.07;;;1.10;;
23302;SDS011;11820;48.738;9.092;2022-09-20T13:24:58;2.53;;;1.27;;
23302;SDS011;11820;48.738;9.092;2022-09-20T13:27:31;3.50;;;1.60;;
23302;SDS011;11820;48.738;9.092;2022-09-20T13:30:12;4.33;;;1.67;;
23302;SDS011;11820;48.738;9.092;2022-09-20T13:32:42;3.43;;;1.50;;
23302;SDS011;11820;48.738;9.092;2022-09-20T13:40:36;6.37;;;2.17;;
23302;SDS011;11820;48.738;9.092;2022-09-20T13:43:26;4.53;;;1.50;;
23302;SDS011;11820;48.738;9.092;2022-09-20T13:45:57;7.23;;;1.67;;
23302;SDS011;11820;48.738;9.092;2022-09-20T13:48:30;3.83;;;1.50;;
23302;SDS011;11820;48.738;9.092;2022-09-20T13:50:55;3.40;;;1.37;;
23302;SDS011;11820;48.738;9.092;2022-09-20T13:53:23;3.13;;;1.50;;
23302;SDS011;11820;48.738;9.092;2022-09-20T13:55:50;4.57;;;1.97;;
23302;SDS011;11820;48.738;9.092;2022-09-20T14:00:56;4.37;;;1.53;;
23302;SDS011;11820;48.738;9.092;2022-09-20T14:03:24;5.87;;;1.50;;
23302;SDS011;11820;48.738;9.092;2022-09-20T14:06:11;4.00;;;1.70;;
23302;SDS011;11820;48.738;9.092;2022-09-20T14:08:40;6.23;;;1.50;;
23302;SDS011;11820;48.738;9.092;2022-09-20T14:11:18;5.20;;;1.43;;
23302;SDS011;11820;48.738;9.092;2022-09-20T14:13:48;5.67;;;2.10;;
23302;SDS011;11820;48.738;9.092;2022-09-20T14:16:15;5.27;;;1.60;;
23302;SDS011;11820;48.738;9.092;2022-09-20T14:18:42;4.17;;;1.50;;
23302;SDS011;11820;48.738;9.092;2022-09-20T14:21:11;4.80;;;1.40;;
23302;SDS011;11820;48.738;9.092;2022-09-20T14:26:39;5.33;;;1.77;;
23302;SDS011;11820;48.738;9.092;2022-09-20T14:32:00;4.43;;;1.37;;
23302;SDS011;11820;48.738;9.092;2022-09-20T14:34:34;4.40;;;1.47;;
23302;SDS011;11820;48.738;9.092;2022-09-20T14:37:05;7.20;;;1.73;;
23302;SDS011;11820;48.738;9.092;2022-09-20T14:39:44;4.70;;;1.60;;
23302;SDS011;11820;48.738;9.092;2022-09-20T14:42:36;3.40;;;1.30;;
23302;SDS011;11820;48.738;9.092;2022-09-20T14:45:05;3.90;;;1.60;;
23302;SDS011;11820;48.738;9.092;2022-09-20T14:47:36;3.50;;;1.13;;
23302;SDS011;11820;48.738;9.092;2022-09-20T14:52:57;2.67;;;1.03;;
23302;SDS011;11820;48.738;9.092;2022-09-20T14:58:30;2.53;;;1.43;;
23302;SDS011;11820;48.738;9.092;2022-09-20T15:03:51;3.83;;;1.30;;
23302;SDS011;11820;48.738;9.092;2022-09-20T15:06:17;2.97;;;1.43;;
23302;SDS011;11820;48.738;9.092;2022-09-20T15:08:43;4.33;;;1.47;;
23302;SDS011;11820;48.738;9.092;2022-09-20T15:11:12;5.53;;;1.40;;
23302;SDS011;11820;48.738;9.092;2022-09-20T15:13:39;5.77;;;1.43;;
23302;SDS011;11820;48.738;9.092;2022-09-20T15:16:05;1.73;;;1.20;;
23302;SDS011;11820;48.738;9.092;2022-09-20T15:18:36;3.50;;;1.27;;
23302;SDS011;11820;48.738;9.092;2022-09-20T15:21:04;2.60;;;1.00;;
23302;SDS011;11820;48.738;9.092;2022-09-20T15:23:30;6.43;;;1.53;;
23302;SDS011;11820;48.738;9.092;2022-09-20T15:25:55;1.80;;;1.20;;
23302;SDS011;11820;48.738;9.092;2022-09-20T15:28:21;1.73;;;1.00;;
23302;SDS011;11820;48.738;9.092;2022-09-20T15:30:47;2.60;;;1.10;;
23302;SDS011;11820;48.738;9.092;2022-09-20T15:33:14;2.30;;;1.10;;
23302;SDS011;11820;48.738;9.092;2022-09-20T15:35:41;2.27;;;0.90;;
23302;SDS011;11820;48.738;9.092;2022-09-20T15:38:07;1.83;;;1.07;;
23302;SDS011;11820;48.738;9.092;2022-09-20T15:40:35;3.63;;;1.43;;
23302;SDS011;11820;48.738;9.092;2022-09-20T15:43:02;1.20;;;0.80;;
23302;SDS011;11820;48.738;9.092;2022-09-20T15:45:27;2.43;;;0.97;;
23302;SDS011;11820;48.738;9.092;2022-09-20T15:47:53;1.50;;;0.80;;
23302;SDS011;11820;48.738;9.092;2022-09-20T15:50:19;3.13;;;1.20;;
23302;SDS011;11820;48.738;9.092;2022-09-20T15:52:47;1.80;;;0.80;;
23302;SDS011;11820;48.738;9.092;2022-09-20T15:55:14;1.80;;;0.90;;
23302;SDS011;11820;48.738;9.092;2022-09-20T15:57:39;1.80;;;0.90;;
23302;SDS011;11820;48.738;9.092;2022-09-20T16:00:06;1.87;;;1.17;;
23302;SDS011;11820;48.738;9.092;2022-09-20T16:02:32;2.30;;;1.10;;
23302;SDS011;11820;48.738;9.092;2022-09-20T16:04:57;2.20;;;0.80;;
23302;SDS011;11820;48.738;9.092;2022-09-20T16:07:23;2.13;;;1.00;;
23302;SDS011;11820;48.738;9.092;2022-09-20T16:09:52;1.37;;;1.00;;
23302;SDS011;11820;48.738;9.092;2022-09-20T16:12:19;0.90;;;0.73;;
23302;SDS011;11820;48.738;9.092;2022-09-20T16:14:45;2.92;;;1.30;;
23302;SDS011;11820;48.738;9.092;2022-09-20T16:17:11;1.53;;;1.00;;
23302;SDS011;11820;48.738;9.092;2022-09-20T16:19:36;1.53;;;1.03;;
23302;SDS011;11820;48.738;9.092;2022-09-20T16:22:02;2.20;;;1.10;;
23302;SDS011;11820;48.738;9.092;2022-09-20T16:24:29;4.60;;;1.10;;
23302;SDS011;11820;48.738;9.092;2022-09-20T16:27:00;4.87;;;1.30;;
23302;SDS011;11820;48.738;9.092;2022-09-20T16:29:27;2.77;;;1.07;;
23302;SDS011;11820;48.738;9.092;2022-09-20T16:31:54;4.83;;;1.70;;
23302;SDS011;11820;48.738;9.092;2022-09-20T16:34:25;2.87;;;1.23;;
23302;SDS011;11820;48.738;9.092;2022-09-20T16:36:56;2.63;;;1.40;;
23302;SDS011;11820;48.738;9.092;2022-09-20T16:39:23;2.07;;;1.20;;
23302;SDS011;11820;48.738;9.092;2022-09-20T16:41:51;5.40;;;1.60;;
23302;SDS011;11820;48.738;9.092;2022-09-20T16:44:18;2.00;;;1.00;;
23302;SDS011;11820;48.738;9.092;2022-09-20T16:46:43;4.07;;;1.30;;
23302;SDS011;11820;48.738;9.092;2022-09-20T16:49:09;1.83;;;1.27;;
23302;SDS011;11820;48.738;9.092;2022-09-20T16:51:37;3.27;;;1.27;;
23302;SDS011;11820;48.738;9.092;2022-09-20T16:54:07;4.47;;;1.57;;
23302;SDS011;11820;48.738;9.092;2022-09-20T16:56:38;4.83;;;1.80;;
23302;SDS011;11820;48.738;9.092;2022-09-20T16:59:05;3.87;;;1.90;;
23302;SDS011;11820;48.738;9.092;2022-09-20T17:01:31;7.13;;;4.20;;
23302;SDS011;11820;48.738;9.092;2022-09-20T17:03:58;4.10;;;2.50;;
23302;SDS011;11820;48.738;9.092;2022-09-20T17:06:23;4.80;;;3.07;;
23302;SDS011;11820;48.738;9.092;2022-09-20T17:08:52;5.47;;;2.00;;
23302;SDS011;11820;48.738;9.092;2022-09-20T17:11:20;4.90;;;1.70;;
23302;SDS011;11820;48.738;9.092;2022-09-20T17:13:48;3.47;;;1.30;;
23302;SDS011;11820;48.738;9.092;2022-09-20T17:16:21;3.17;;;1.33;;
23302;SDS011;11820;48.738;9.092;2022-09-20T17:19:07;2.13;;;1.20;;
23302;SDS011;11820;48.738;9.092;2022-09-20T17:21:35;4.83;;;1.60;;
23302;SDS011;11820;48.738;9.092;2022-09-20T17:24:03;3.60;;;1.30;;
23302;SDS011;11820;48.738;9.092;2022-09-20T17:26:32;2.87;;;1.30;;
23302;SDS011;11820;48.738;9.092;2022-09-20T17:28:59;8.00;;;2.83;;
23302;SDS011;11820;48.738;9.092;2022-09-20T17:31:27;3.77;;;1.80;;
23302;SDS011;11820;48.738;9.092;2022-09-20T17:33:58;3.40;;;1.50;;
23302;SDS011;11820;48.738;9.092;2022-09-20T17:36:26;5.97;;;1.80;;
23302;SDS011;11820;48.738;9.092;2022-09-20T17:38:56;5.80;;;2.23;;
23302;SDS011;11820;48.738;9.092;2022-09-20T17:41:24;9.60;;;4.77;;
23302;SDS011;11820;48.738;9.092;2022-09-20T17:43:57;8.70;;;4.63;;
23302;SDS011;11820;48.738;9.092;2022-09-20T17:49:13;6.70;;;5.00;;
23302;SDS011;11820;48.738;9.092;2022-09-20T17:51:53;5.57;;;3.03;;
23302;SDS011;11820;48.738;9.092;2022-09-20T17:54:20;5.40;;;2.60;;
23302;SDS011;11820;48.738;9.092;2022-09-20T17:57:01;6.73;;;3.33;;
23302;SDS011;11820;48.738;9.092;2022-09-20T17:59:27;6.40;;;1.97;;
23302;SDS011;11820;48.738;9.092;2022-09-20T18:01:52;3.03;;;1.80;;
23302;SDS011;11820;48.738;9.092;2022-09-20T18:04:18;2.70;;;1.40;;
23302;SDS011;11820;48.738;9.092;2022-09-20T18:06:46;3.97;;;2.77;;
23302;SDS011;11820;48.738;9.092;2022-09-20T18:09:13;2.27;;;1.80;;
23302;SDS011;11820;48.738;9.092;2022-09-20T18:11:42;2.97;;;1.90;;
23302;SDS011;11820;48.738;9.092;2022-09-20T18:14:13;5.63;;;3.30;;
23302;SDS011;11820;48.738;9.092;2022-09-20T18:16:40;10.57;;;4.77;;
23302;SDS011;11820;48.738;9.092;2022-09-20T18:19:08;7.40;;;3.10;;
23302;SDS011;11820;48.738;9.092;2022-09-20T18:21:34;5.17;;;2.87;;
23302;SDS011;11820;48.738;9.092;2022-09-20T18:24:01;3.70;;;2.20;;
23302;SDS011;11820;48.738;9.092;2022-09-20T18:26:29;3.47;;;2.00;;
23302;SDS011;11820;48.738;9.092;2022-09-20T18:29:00;3.87;;;1.70;;
23302;SDS011;11820;48.738;9.092;2022-09-20T18:31:46;3.73;;;1.80;;
23302;SDS011;11820;48.738;9.092;2022-09-20T18:34:15;15.53;;;9.53;;
23302;SDS011;11820;48.738;9.092;2022-09-20T18:36:43;11.90;;;6.53;;
23302;SDS011;11820;48.738;9.092;2022-09-20T18:39:10;16.97;;;11.53;;
23302;SDS011;11820;48.738;9.092;2022-09-20T18:41:37;7.50;;;4.20;;
23302;SDS011;11820;48.738;9.092;2022-09-20T18:44:04;3.17;;;2.27;;
23302;SDS011;11820;48.738;9.092;2022-09-20T18:46:31;2.40;;;1.80;;
23302;SDS011;11820;48.738;9.092;2022-09-20T18:49:01;3.47;;;1.90;;
23302;SDS011;11820;48.738;9.092;2022-09-20T18:51:30;3.17;;;1.70;;
23302;SDS011;11820;48.738;9.092;2022-09-20T18:53:56;3.07;;;1.97;;
23302;SDS011;11820;48.738;9.092;2022-09-20T18:56:26;2.83;;;1.90;;
23302;SDS011;11820;48.738;9.092;2022-09-20T18:58:54;3.30;;;2.00;;
23302;SDS011;11820;48.738;9.092;2022-09-20T19:06:50;7.63;;;2.03;;
23302;SDS011;11820;48.738;9.092;2022-09-20T19:09:36;4.33;;;2.13;;
23302;SDS011;11820;48.738;9.092;2022-09-20T19:12:25;6.07;;;2.40;;
23302;SDS011;11820;48.738;9.092;2022-09-20T19:15:10;5.10;;;2.10;;
23302;SDS011;11820;48.738;9.092;2022-09-20T19:17:58;4.23;;;1.50;;
23302;SDS011;11820;48.738;9.092;2022-09-20T19:21:03;4.20;;;2.00;;
23302;SDS011;11820;48.738;9.092;2022-09-20T19:26:32;4.27;;;1.93;;
23302;SDS011;11820;48.738;9.092;2022-09-20T19:29:02;2.73;;;1.90;;
23302;SDS011;11820;48.738;9.092;2022-09-20T19:31:35;2.33;;;1.57;;
23302;SDS011;11820;48.738;9.092;2022-09-20T19:34:03;3.47;;;1.87;;
23302;SDS011;11820;48.738;9.092;2022-09-20T19:36:56;2.40;;;1.87;;
23302;SDS011;11820;48.738;9.092;2022-09-20T19:39:58;3.30;;;1.60;;
23302;SDS011;11820;48.738;9.092;2022-09-20T19:50:37;4.43;;;1.97;;
23302;SDS011;11820;48.738;9.092;2022-09-20T19:53:08;4.13;;;1.83;;
23302;SDS011;11820;48.738;9.092;2022-09-20T19:55:34;4.10;;;2.00;;
23302;SDS011;11820;48.738;9.092;2022-09-20T19:58:00;2.53;;;1.80;;
23302;SDS011;11820;48.738;9.092;2022-09-20T20:00:26;3.40;;;2.40;;
23302;SDS011;11820;48.738;9.092;2022-09-20T20:02:51;15.40;;;8.20;;
23302;SDS011;11820;48.738;9.092;2022-09-20T20:05:18;6.97;;;4.47;;
23302;SDS011;11820;48.738;9.092;2022-09-20T20:13:43;4.43;;;2.10;;
23302;SDS011;11820;48.738;9.092;2022-09-20T20:16:33;2.73;;;1.80;;
23302;SDS011;11820;48.738;9.092;2022-09-20T20:19:12;6.77;;;2.20;;
23302;SDS011;11820;48.738;9.092;2022-09-20T20:21:51;4.30;;;2.13;;
23302;SDS011;11820;48.738;9.092;2022-09-20T20:24:27;4.57;;;1.87;;
23302;SDS011;11820;48.738;9.092;2022-09-20T20:27:01;2.23;;;2.03;;
23302;SDS011;11820;48.738;9.092;2022-09-20T20:29:27;4.80;;;2.00;;
23302;SDS011;11820;48.738;9.092;2022-09-20T20:31:52;3.47;;;2.17;;
23302;SDS011;11820;48.738;9.092;2022-09-20T20:34:18;3.93;;;1.80;;
23302;SDS011;11820;48.738;9.092;2022-09-20T20:36:44;2.97;;;2.00;;
23302;SDS011;11820;48.738;9.092;2022-09-20T20:39:10;3.83;;;1.83;;
23302;SDS011;11820;48.738;9.092;2022-09-20T20:41:36;4.93;;;1.90;;
23302;SDS011;11820;48.738;9.092;2022-09-20T20:44:03;5.13;;;2.13;;
23302;SDS011;11820;48.738;9.092;2022-09-20T20:46:30;2.70;;;2.20;;
23302;SDS011;11820;48.738;9.092;2022-09-20T20:48:57;6.27;;;2.20;;
23302;SDS011;11820;48.738;9.092;2022-09-20T20:51:23;3.73;;;2.10;;
23302;SDS011;11820;48.738;9.092;2022-09-20T20:53:50;2.80;;;2.47;;
23302;SDS011;11820;48.738;9.092;2022-09-20T20:56:18;5.73;;;2.57;;
23302;SDS011;11820;48.738;9.092;2022-09-20T20:58:44;3.97;;;2.17;;